Terminal Aerodrome Forecast
Issued by NWS Sioux Falls, SD

Home | Current Version | Previous Version | Graphics & Text | Print | Product List | Glossary On
Versions: 1 2 3 4 5 6 7 8 9 10 11 12 13 14 15 16 17 18 19
000
FTUS43 KFSD 230500 RRA
TAFFSD
TAF
KFSD 230543Z 2306/2406 07006KT P6SM SCT030 BKN150
     FM231000 07009KT P6SM -SHRA SCT015 OVC070
      TEMPO 2312/2316 2SM TSRA BR SCT008 BKN015CB
     FM231700 13013G20KT P6SM BKN018
     FM232100 15013G20KT P6SM SCT035
     FM240100 15010KT P6SM BKN070=

USA.gov is the U.S. government's official web portal to all federal, state and local government web resources and services.